createdAt,value
2023-02-06T00:03:12.902Z,-5.68
2023-02-06T00:08:14.840Z,-5.70
2023-02-06T00:13:16.888Z,-5.74
2023-02-06T00:18:18.575Z,-5.62
2023-02-06T00:23:20.261Z,-5.70
2023-02-06T00:28:22.181Z,-5.32
2023-02-06T00:33:24.641Z,-5.71
2023-02-06T00:38:26.440Z,-5.26
2023-02-06T00:43:28.138Z,-5.40
2023-02-06T00:48:31.607Z,-5.78
2023-02-06T00:53:33.755Z,-5.59
2023-02-06T00:58:35.501Z,-5.81
2023-02-06T01:03:38.031Z,-6.07
2023-02-06T01:08:39.658Z,-5.89
2023-02-06T01:13:42.289Z,-5.77
2023-02-06T01:18:43.996Z,-5.92
2023-02-06T01:23:46.934Z,-5.98
2023-02-06T01:28:49.085Z,-5.68
2023-02-06T01:33:51.810Z,-5.80
2023-02-06T01:38:53.600Z,-5.44
2023-02-06T01:44:14.878Z,-5.82
2023-02-06T01:49:27.632Z,-6.02
2023-02-06T01:54:31.694Z,-5.46
2023-02-06T01:59:34.631Z,-5.81
2023-02-06T02:04:36.409Z,-5.87
2023-02-06T02:09:38.229Z,-5.94
2023-02-06T02:14:42.562Z,-5.60
2023-02-06T02:19:59.480Z,-5.52
2023-02-06T02:25:30.466Z,-5.44
2023-02-06T02:30:41.307Z,-5.88
2023-02-06T02:35:42.957Z,-5.98
2023-02-06T02:40:56.089Z,-6.03
2023-02-06T02:46:09.074Z,-6.06
2023-02-06T02:51:11.679Z,-5.87
2023-02-06T02:56:17.456Z,-5.83
2023-02-06T03:01:24.582Z,-5.94
2023-02-06T03:06:40.402Z,-5.99
2023-02-06T03:11:50.786Z,-6.15
2023-02-06T03:16:58.107Z,-5.99
2023-02-06T03:22:00.964Z,-5.90
2023-02-06T03:27:08.628Z,-6.00
2023-02-06T03:32:32.370Z,-6.15
2023-02-06T03:37:35.722Z,-5.96
2023-02-06T03:42:42.458Z,-5.97
2023-02-06T03:47:46.547Z,-6.07
2023-02-06T03:52:51.113Z,-6.26
2023-02-06T03:58:01.473Z,-6.15
2023-02-06T04:03:04.805Z,-5.67
2023-02-06T04:08:07.252Z,-5.76
2023-02-06T04:13:09.006Z,-5.83
2023-02-06T04:18:10.700Z,-5.69
2023-02-06T04:23:12.361Z,-5.67
2023-02-06T04:28:14.378Z,-5.90
2023-02-06T04:33:16.519Z,-6.00
2023-02-06T04:38:18.750Z,-6.13
2023-02-06T04:43:22.104Z,-6.13
2023-02-06T04:48:25.986Z,-6.11
2023-02-06T04:53:29.775Z,-6.06
2023-02-06T04:58:31.548Z,-6.00
2023-02-06T05:03:33.507Z,-5.86
2023-02-06T05:08:39.770Z,-5.79
2023-02-06T05:13:42.436Z,-5.71
2023-02-06T05:18:46.670Z,-5.68
2023-02-06T05:23:48.410Z,-5.37
2023-02-06T05:28:50.138Z,-5.37
2023-02-06T05:33:52.690Z,-5.36
2023-02-06T05:38:54.744Z,-5.34
2023-02-06T05:43:56.451Z,-5.14
2023-02-06T05:48:58.743Z,-5.03
2023-02-06T05:54:00.971Z,-5.11
2023-02-06T05:59:02.694Z,-5.20
2023-02-06T06:04:04.504Z,-5.03
2023-02-06T06:09:06.288Z,-4.86
2023-02-06T06:14:08.478Z,-4.91
2023-02-06T06:19:10.275Z,-4.85
2023-02-06T06:24:11.946Z,-4.84
2023-02-06T06:29:13.770Z,-4.77
2023-02-06T06:34:15.470Z,-4.71
2023-02-06T06:44:45.055Z,-4.53
2023-02-06T06:49:46.746Z,-4.44
2023-02-06T06:54:48.522Z,-4.48
2023-02-06T06:59:50.983Z,-4.50
2023-02-06T07:04:52.658Z,-4.51
2023-02-06T07:09:54.349Z,-4.08
2023-02-06T07:14:55.998Z,-4.33
2023-02-06T07:19:57.679Z,-4.32
2023-02-06T07:24:59.326Z,-4.30
2023-02-06T07:30:01.006Z,-4.31
2023-02-06T07:35:03.074Z,-4.17
2023-02-06T07:40:05.680Z,-4.05
2023-02-06T07:45:07.708Z,-3.77
2023-02-06T07:50:10.240Z,-3.87
2023-02-06T07:55:12.050Z,-3.80
2023-02-06T08:00:14.365Z,-3.73
2023-02-06T08:05:16.125Z,-3.79
2023-02-06T08:10:17.960Z,-3.68
2023-02-06T08:15:19.585Z,-3.21
2023-02-06T08:20:21.247Z,-3.26
2023-02-06T08:25:22.963Z,-2.85
2023-02-06T08:30:24.846Z,-2.71
2023-02-06T08:35:26.639Z,-2.96
2023-02-06T08:40:28.313Z,-3.05
2023-02-06T08:45:29.935Z,-2.76
2023-02-06T08:50:31.580Z,-2.87
2023-02-06T08:55:33.267Z,-2.62
2023-02-06T09:00:35.020Z,-2.77
2023-02-06T09:05:36.962Z,-2.91
2023-02-06T09:10:38.881Z,-2.68
2023-02-06T09:15:41.508Z,-2.72
2023-02-06T09:20:43.221Z,-1.92
2023-02-06T09:25:45.662Z,-1.92
2023-02-06T09:30:47.441Z,-1.99
2023-02-06T09:35:49.163Z,-1.80
2023-02-06T09:40:53.296Z,-2.03
2023-02-06T09:46:04.629Z,-2.05
2023-02-06T09:51:45.110Z,-1.94
2023-02-06T09:56:49.646Z,-2.07
2023-02-06T10:02:13.076Z,-2.30
2023-02-06T10:07:17.570Z,-2.49
2023-02-06T10:12:35.876Z,-2.29
2023-02-06T10:18:01.188Z,-2.15
2023-02-06T10:23:23.796Z,-2.06
2023-02-06T10:28:28.723Z,-2.00
2023-02-06T10:33:56.387Z,-2.09
2023-02-06T10:39:25.995Z,-1.82
2023-02-06T10:44:39.128Z,-1.65
2023-02-06T10:49:55.372Z,-1.69
2023-02-06T10:54:59.470Z,-1.53
2023-02-06T11:00:03.509Z,-1.57
2023-02-06T11:05:16.136Z,-1.79
2023-02-06T11:10:20.697Z,-1.75
2023-02-06T11:15:27.466Z,-1.49
2023-02-06T11:20:33.288Z,-1.26
2023-02-06T11:25:35.485Z,-1.28
2023-02-06T11:30:41.335Z,-1.12
2023-02-06T11:35:55.475Z,-1.25
2023-02-06T11:41:01.519Z,-0.89
2023-02-06T11:46:26.845Z,-0.93
2023-02-06T11:51:54.001Z,-0.91
2023-02-06T11:57:01.952Z,-0.84
2023-02-06T12:02:25.191Z,-0.68
2023-02-06T12:07:47.147Z,-0.47
2023-02-06T12:12:56.314Z,-0.48
2023-02-06T12:18:03.988Z,-0.07
2023-02-06T12:23:14.810Z,-0.55
2023-02-06T12:28:38.658Z,-0.24
2023-02-06T12:33:47.839Z,-0.23
2023-02-06T12:39:11.750Z,-0.42
2023-02-06T12:44:40.812Z,-0.47
2023-02-06T12:50:13.739Z,-0.16
2023-02-06T12:55:23.465Z,0.15
2023-02-06T13:00:38.195Z,-0.04
2023-02-06T13:05:44.344Z,0.33
2023-02-06T13:10:58.370Z,0.25
2023-02-06T13:16:00.686Z,0.12
2023-02-06T13:21:20.933Z,0.45
2023-02-06T13:26:56.495Z,-0.01
2023-02-06T13:32:20.844Z,-0.26
2023-02-06T13:37:33.618Z,-0.37
2023-02-06T13:42:58.339Z,-0.42
2023-02-06T13:48:06.013Z,-0.38
2023-02-06T13:53:16.705Z,-0.18
2023-02-06T13:58:41.056Z,0.03
2023-02-06T14:03:46.075Z,0.07
2023-02-06T14:09:06.504Z,0.37
2023-02-06T14:14:27.360Z,0.30
2023-02-06T14:19:44.363Z,0.63
2023-02-06T14:25:10.719Z,0.25
2023-02-06T14:30:50.781Z,0.14
2023-02-06T14:36:08.679Z,0.14
2023-02-06T14:41:11.002Z,0.09
2023-02-06T14:46:15.764Z,-0.23
2023-02-06T14:51:20.364Z,-0.37
2023-02-06T14:56:28.725Z,-0.42
2023-02-06T15:01:32.796Z,-0.55
2023-02-06T15:06:37.714Z,-0.47
2023-02-06T15:11:39.752Z,-0.66
2023-02-06T15:16:49.330Z,-0.81
2023-02-06T15:22:01.645Z,-0.83
2023-02-06T15:27:18.570Z,-0.83
2023-02-06T15:32:38.593Z,-1.09
2023-02-06T15:37:40.443Z,-1.18
2023-02-06T15:42:42.502Z,-1.28
2023-02-06T15:47:46.077Z,-1.33
2023-02-06T15:52:48.240Z,-1.52
2023-02-06T15:57:51.597Z,-1.60
2023-02-06T16:03:05.028Z,-1.64
2023-02-06T16:08:22.325Z,-1.80
2023-02-06T16:13:26.038Z,-1.91
2023-02-06T16:18:34.270Z,-1.97
2023-02-06T16:24:03.180Z,-2.12
2023-02-06T16:29:10.829Z,-2.07
2023-02-06T16:34:35.152Z,-1.78
2023-02-06T16:39:36.879Z,-1.80
2023-02-06T16:44:44.749Z,-1.92
2023-02-06T16:49:52.042Z,-2.32
2023-02-06T16:54:59.046Z,-2.65
2023-02-06T17:00:02.135Z,-2.75
2023-02-06T17:05:05.015Z,-2.63
2023-02-06T17:10:08.050Z,-2.42
2023-02-06T17:15:11.973Z,-2.14
2023-02-06T17:20:37.209Z,-2.59
2023-02-06T17:25:40.688Z,-2.64
2023-02-06T17:30:42.524Z,-2.89
2023-02-06T17:35:47.225Z,-2.72
2023-02-06T17:40:49.172Z,-3.09
2023-02-06T17:45:50.961Z,-3.20
2023-02-06T17:50:52.841Z,-3.20
2023-02-06T17:55:54.538Z,-3.15
2023-02-06T18:00:56.244Z,-3.45
2023-02-06T18:06:01.985Z,-3.70
2023-02-06T18:11:11.703Z,-3.47
2023-02-06T18:16:26.158Z,-3.65
2023-02-06T18:21:30.450Z,-3.92
2023-02-06T18:26:35.624Z,-3.90
2023-02-06T18:31:38.091Z,-3.95
2023-02-06T18:36:39.857Z,-3.70
2023-02-06T18:42:00.538Z,-3.72
2023-02-06T18:47:02.307Z,-3.89
2023-02-06T18:52:05.234Z,-3.99
2023-02-06T18:57:07.304Z,-4.34
2023-02-06T19:02:10.883Z,-4.27
2023-02-06T19:07:13.752Z,-4.10
2023-02-06T19:12:15.498Z,-4.30
2023-02-06T19:17:17.257Z,-4.42
2023-02-06T19:22:19.001Z,-4.57
2023-02-06T19:27:21.646Z,-4.76
2023-02-06T19:32:26.000Z,-4.57
2023-02-06T19:37:27.755Z,-4.58
2023-02-06T19:42:29.468Z,-4.93
2023-02-06T19:47:31.172Z,-5.09
2023-02-06T19:52:35.252Z,-5.11
2023-02-06T19:57:39.631Z,-4.70
2023-02-06T20:02:41.574Z,-5.04
2023-02-06T20:07:43.278Z,-4.98
2023-02-06T20:12:45.226Z,-5.03
2023-02-06T20:17:46.902Z,-5.44
2023-02-06T20:22:48.612Z,-5.68
2023-02-06T20:27:50.381Z,-5.10
2023-02-06T20:32:52.138Z,-5.22
2023-02-06T20:37:53.866Z,-5.34
2023-02-06T20:42:55.612Z,-5.47
2023-02-06T20:47:57.350Z,-5.48
2023-02-06T20:52:59.182Z,-5.53
2023-02-06T20:58:00.832Z,-5.82
2023-02-06T21:03:02.646Z,-5.98
2023-02-06T21:08:04.584Z,-5.79
2023-02-06T21:13:06.398Z,-5.94
2023-02-06T21:18:08.186Z,-5.88
2023-02-06T21:23:10.327Z,-6.06
2023-02-06T21:28:12.154Z,-5.99
2023-02-06T21:33:13.887Z,-5.74
2023-02-06T21:38:15.753Z,-5.94
2023-02-06T21:43:17.549Z,-6.04
2023-02-06T21:48:19.287Z,-6.02
2023-02-06T21:53:21.853Z,-6.02
2023-02-06T21:58:23.523Z,-6.24
2023-02-06T22:03:25.444Z,-6.21
2023-02-06T22:08:27.117Z,-6.06
2023-02-06T22:13:28.902Z,-6.21
2023-02-06T22:18:30.558Z,-6.09
2023-02-06T22:23:32.484Z,-6.40
2023-02-06T22:28:34.593Z,-6.52
2023-02-06T22:33:36.973Z,-6.43
2023-02-06T22:38:39.485Z,-6.10
2023-02-06T22:43:41.897Z,-6.10
2023-02-06T22:48:43.643Z,-6.30
2023-02-06T22:53:45.659Z,-6.63
2023-02-06T22:58:48.783Z,-6.36
2023-02-06T23:03:54.688Z,-6.65
2023-02-06T23:08:57.799Z,-6.74
2023-02-06T23:14:05.880Z,-6.54
2023-02-06T23:19:08.280Z,-6.64
2023-02-06T23:24:10.769Z,-7.03
2023-02-06T23:29:17.770Z,-6.99
2023-02-06T23:34:20.569Z,-7.04
2023-02-06T23:39:22.212Z,-6.81
2023-02-06T23:44:23.867Z,-6.90
2023-02-06T23:49:25.482Z,-6.93
2023-02-06T23:54:27.105Z,-7.04
2023-02-06T23:59:28.791Z,-7.20
